Time;durP1;ratioP1;P1;durP2;ratioP2;P2;SDS_P1;SDS_P2;PMS_P1;PMS_P2;Temp;Humidity;BMP_temperature;BMP_pressure;BME280_temperature;BME280_humidity;BME280_pressure;Samples;Min_cycle;Max_cycle;Signal;HPM_P1;HPM_P2
2021/01/09 00:00:12;;;;;;;37.33;22.50;;;;;;;3.87;69.06;101203.59;4998298;28;20060;-85
2021/01/09 00:02:38;;;;;;;36.28;21.60;;;;;;;4.12;66.40;101202.88;5006551;28;20543;-86
2021/01/09 00:05:04;;;;;;;29.67;19.83;;;;;;;3.86;67.87;101212.25;5010658;28;20026;-87
2021/01/09 00:07:33;;;;;;;31.52;19.17;;;;;;;4.03;67.38;101208.34;5010881;28;20408;-86
2021/01/09 00:10:00;;;;;;;35.25;20.67;;;;;;;3.99;66.59;101215.38;4996395;28;20041;-86
2021/01/09 00:12:25;;;;;;;33.58;20.58;;;;;;;3.58;68.82;101205.19;4995592;28;20034;-86
2021/01/09 00:14:51;;;;;;;32.70;19.90;;;;;;;3.90;68.55;101211.28;5010576;28;20034;-85
2021/01/09 00:17:16;;;;;;;32.47;20.63;;;;;;;4.03;67.13;101209.22;5012392;28;20037;-86
2021/01/09 00:19:42;;;;;;;35.75;20.25;;;;;;;3.95;67.32;101217.22;5013492;28;20116;-86
2021/01/09 00:22:08;;;;;;;30.63;18.90;;;;;;;3.91;66.96;101215.59;5012010;28;20032;-86
2021/01/09 00:24:33;;;;;;;35.80;20.80;;;;;;;3.84;67.72;101219.25;5013739;28;20029;-86
2021/01/09 00:26:59;;;;;;;31.00;18.35;;;;;;;3.67;67.57;101221.44;5011713;28;20427;-87
2021/01/09 00:29:24;;;;;;;28.23;17.02;;;;;;;3.88;67.16;101220.84;5013258;28;20026;-86
2021/01/09 00:31:49;;;;;;;29.27;17.02;;;;;;;3.95;66.28;101221.56;5012290;28;20029;-86
2021/01/09 00:34:15;;;;;;;27.13;17.33;;;;;;;3.96;67.06;101225.84;4995407;28;20034;-86
2021/01/09 00:36:48;;;;;;;29.05;17.83;;;;;;;3.86;67.25;101233.03;4992045;28;20089;-85
2021/01/09 00:39:14;;;;;;;32.38;18.08;;;;;;;3.96;66.49;101231.91;4997289;28;20888;-85
2021/01/09 00:41:39;;;;;;;31.92;19.70;;;;;;;3.86;66.99;101238.25;5011567;28;20083;-85
2021/01/09 00:44:06;;;;;;;29.95;19.08;;;;;;;3.84;67.63;101234.00;4996037;28;20421;-85
2021/01/09 00:46:32;;;;;;;31.92;18.30;;;;;;;3.75;67.34;101232.47;4993182;28;20034;-86
2021/01/09 00:48:57;;;;;;;32.83;19.83;;;;;;;3.75;66.46;101237.66;4992862;28;20080;-85
2021/01/09 00:51:23;;;;;;;32.83;19.25;;;;;;;3.73;67.23;101234.25;4993813;28;20375;-86
2021/01/09 00:53:48;;;;;;;28.92;18.15;;;;;;;3.99;66.24;101243.97;5005585;28;20365;-86
2021/01/09 00:56:17;;;;;;;35.25;20.30;;;;;;;3.91;66.65;101245.91;5011662;28;20026;-86
2021/01/09 00:58:43;;;;;;;30.67;18.50;;;;;;;3.93;67.03;101241.50;5012398;28;20033;-86
2021/01/09 01:01:08;;;;;;;31.83;19.75;;;;;;;4.04;67.69;101241.25;5000271;28;20022;-86
2021/01/09 01:03:34;;;;;;;32.28;19.80;;;;;;;3.94;65.92;101246.69;5002274;28;20032;-86
2021/01/09 01:05:59;;;;;;;31.20;19.00;;;;;;;4.09;65.67;101242.81;4998445;28;20041;-86
2021/01/09 01:08:25;;;;;;;30.48;19.05;;;;;;;4.02;66.44;101237.81;4997197;28;20377;-85
2021/01/09 01:10:54;;;;;;;34.05;20.52;;;;;;;3.97;66.02;101232.78;5003907;28;20246;-85
2021/01/09 01:13:20;;;;;;;31.10;19.52;;;;;;;4.07;66.64;101235.94;4992722;28;20030;-85
2021/01/09 01:15:45;;;;;;;30.83;18.98;;;;;;;3.97;66.26;101236.22;4992254;28;20030;-85
2021/01/09 01:18:10;;;;;;;30.38;18.08;;;;;;;3.95;66.32;101242.34;4993433;28;20391;-86
2021/01/09 01:20:36;;;;;;;30.80;18.67;;;;;;;4.07;65.34;101241.13;4991887;28;20396;-86
2021/01/09 01:23:01;;;;;;;29.02;18.17;;;;;;;3.91;65.49;101236.38;4993631;28;20031;-85
2021/01/09 01:25:26;;;;;;;28.88;18.75;;;;;;;3.83;65.34;101235.75;4993190;28;20499;-86
2021/01/09 01:27:52;;;;;;;30.33;18.05;;;;;;;3.84;66.22;101244.38;5005984;28;20491;-85
2021/01/09 01:30:17;;;;;;;30.17;18.38;;;;;;;3.83;66.43;101243.53;5009717;28;20521;-85
2021/01/09 01:32:43;;;;;;;33.67;19.73;;;;;;;3.73;65.17;101240.31;4990941;28;20034;-86
2021/01/09 01:35:09;;;;;;;29.08;17.85;;;;;;;3.86;65.79;101252.97;4992642;28;20105;-86
2021/01/09 01:37:34;;;;;;;29.20;18.27;;;;;;;3.76;65.07;101254.97;5012076;28;20108;-85
2021/01/09 01:39:59;;;;;;;29.63;18.70;;;;;;;3.75;66.64;101255.84;5011974;28;20044;-85
2021/01/09 01:42:25;;;;;;;30.63;19.42;;;;;;;3.86;67.43;101256.44;4994053;28;20498;-85
2021/01/09 01:44:50;;;;;;;33.10;20.60;;;;;;;3.91;65.91;101257.16;5010662;28;20491;-85
2021/01/09 01:47:21;;;;;;;28.10;17.88;;;;;;;3.95;66.40;101258.78;5010520;28;20045;-85
2021/01/09 01:49:48;;;;;;;33.13;19.38;;;;;;;3.87;66.46;101257.28;4992512;28;20085;-85
2021/01/09 01:52:15;;;;;;;29.08;19.73;;;;;;;3.95;65.38;101266.59;4992475;28;20030;-85
2021/01/09 01:54:41;;;;;;;31.02;18.52;;;;;;;3.86;66.40;101264.22;4992385;28;20034;-85
2021/01/09 01:57:12;;;;;;;33.33;19.90;;;;;;;3.70;67.07;101273.31;4999618;28;20027;-85
2021/01/09 01:59:41;;;;;;;31.08;19.60;;;;;;;3.51;67.54;101270.31;4991754;28;20030;-86
2021/01/09 02:02:09;;;;;;;35.35;20.63;;;;;;;3.66;67.88;101276.88;5005039;28;20132;-85
2021/01/09 02:04:34;;;;;;;37.08;19.92;;;;;;;3.69;67.20;101276.78;5010827;28;20061;-86
2021/01/09 02:07:11;;;;;;;31.95;20.13;;;;;;;3.67;67.02;101284.59;5009623;28;20069;-86
2021/01/09 02:09:42;;;;;;;33.90;20.65;;;;;;;3.71;66.75;101286.25;4992203;28;20040;-86
2021/01/09 02:12:13;;;;;;;30.83;19.13;;;;;;;3.55;67.10;101301.38;4992065;28;20022;-86
2021/01/09 02:14:43;;;;;;;35.40;21.00;;;;;;;3.48;67.06;101291.19;5004700;28;20424;-86
2021/01/09 02:17:09;;;;;;;30.40;18.17;;;;;;;3.65;67.50;101293.34;4991672;28;20060;-86
2021/01/09 02:19:38;;;;;;;31.88;20.58;;;;;;;3.58;67.06;101293.50;5012150;28;20038;-86
2021/01/09 02:22:05;;;;;;;31.33;19.30;;;;;;;3.55;66.69;101296.19;4995599;28;20048;-86
2021/01/09 02:24:31;;;;;;;32.60;20.13;;;;;;;3.56;67.21;101312.59;4998047;28;20037;-86
2021/01/09 02:26:57;;;;;;;30.50;18.30;;;;;;;3.64;66.16;101295.09;4993952;28;20419;-86
2021/01/09 02:29:24;;;;;;;30.05;18.08;;;;;;;3.65;66.76;101295.94;4995596;28;20034;-86
2021/01/09 02:32:00;;;;;;;33.03;18.98;;;;;;;3.75;67.01;101297.41;4995551;28;20030;-85
2021/01/09 02:34:51;;;;;;;30.92;18.30;;;;;;;3.72;66.99;101292.31;4997610;28;20034;-85
2021/01/09 02:37:17;;;;;;;34.33;18.27;;;;;;;3.62;67.75;101296.03;4994487;28;20113;-85
2021/01/09 02:39:42;;;;;;;35.97;20.05;;;;;;;3.57;68.33;101294.41;4995382;28;20485;-85
2021/01/09 02:42:08;;;;;;;33.33;18.55;;;;;;;3.55;68.01;101301.38;5009285;28;20130;-85
2021/01/09 02:44:34;;;;;;;31.65;17.83;;;;;;;3.64;67.83;101304.63;5010283;28;20058;-86
2021/01/09 02:46:59;;;;;;;28.65;18.00;;;;;;;3.69;68.04;101302.75;4994028;28;20110;-86
2021/01/09 02:49:25;;;;;;;30.52;17.08;;;;;;;3.73;68.40;101304.38;4994647;28;20125;-85
2021/01/09 02:51:51;;;;;;;33.50;18.15;;;;;;;3.72;68.52;101307.88;4995722;28;20038;-85
2021/01/09 02:54:16;;;;;;;33.80;17.90;;;;;;;3.74;67.78;101316.50;4994941;28;20062;-85
2021/01/09 02:56:41;;;;;;;34.13;19.48;;;;;;;3.87;67.61;101307.50;5004666;28;20030;-85
2021/01/09 02:59:07;;;;;;;34.67;17.95;;;;;;;3.76;67.55;101306.91;5014830;28;20480;-85
2021/01/09 03:01:32;;;;;;;35.08;19.42;;;;;;;3.78;69.25;101312.94;4998592;28;20026;-86
2021/01/09 03:03:58;;;;;;;34.88;18.67;;;;;;;3.56;69.89;101299.63;4995014;28;20053;-85
2021/01/09 03:06:24;;;;;;;35.58;17.65;;;;;;;3.82;68.79;101309.34;4998570;28;20022;-85
2021/01/09 03:08:50;;;;;;;35.63;19.48;;;;;;;3.92;67.46;101304.78;5012709;28;20496;-85
2021/01/09 03:11:16;;;;;;;33.80;18.02;;;;;;;3.71;68.97;101306.16;5014514;28;20065;-85
2021/01/09 03:13:43;;;;;;;36.75;18.50;;;;;;;3.79;69.04;101304.22;5011872;28;20030;-85
2021/01/09 03:16:08;;;;;;;34.03;18.73;;;;;;;3.78;68.96;101305.97;5010916;28;20396;-85
2021/01/09 03:18:34;;;;;;;35.88;17.23;;;;;;;3.94;68.71;101300.41;5012063;28;20029;-85
2021/01/09 03:20:59;;;;;;;34.22;18.88;;;;;;;3.74;68.93;101313.91;5008867;28;20546;-85
2021/01/09 03:23:25;;;;;;;37.47;18.92;;;;;;;3.88;69.12;101313.56;4996036;28;20023;-85
2021/01/09 03:25:50;;;;;;;36.20;18.80;;;;;;;3.89;69.64;101305.72;5012450;28;20053;-85
2021/01/09 03:28:15;;;;;;;36.63;18.83;;;;;;;3.94;69.31;101311.63;4994755;28;20038;-85
2021/01/09 03:30:42;;;;;;;36.92;20.00;;;;;;;3.96;68.44;101317.63;4994194;28;20018;-85
2021/01/09 03:33:07;;;;;;;31.92;18.25;;;;;;;3.91;68.71;101319.53;5000130;28;20484;-85
2021/01/09 03:35:32;;;;;;;33.95;18.17;;;;;;;3.97;68.75;101319.38;5002213;28;20106;-84
2021/01/09 03:37:58;;;;;;;37.63;19.23;;;;;;;4.05;68.69;101318.28;5003827;28;20492;-85
2021/01/09 03:40:23;;;;;;;37.67;18.02;;;;;;;4.13;68.79;101318.97;4994778;28;20030;-85
2021/01/09 03:42:48;;;;;;;30.90;16.60;;;;;;;4.20;67.72;101317.88;4997305;28;20026;-85
2021/01/09 03:45:14;;;;;;;30.15;16.48;;;;;;;4.23;68.91;101320.41;5002742;28;20459;-85
2021/01/09 03:47:39;;;;;;;31.15;15.18;;;;;;;4.29;68.63;101324.59;5014033;28;20116;-85
2021/01/09 03:50:06;;;;;;;36.50;17.02;;;;;;;4.35;68.75;101327.88;5011515;28;20041;-85
2021/01/09 03:52:31;;;;;;;31.13;16.55;;;;;;;4.35;68.39;101327.88;5012367;28;20026;-85
2021/01/09 03:54:56;;;;;;;30.40;15.70;;;;;;;4.38;67.72;101326.94;5013432;28;20033;-85
2021/01/09 03:57:22;;;;;;;32.80;16.73;;;;;;;4.32;68.37;101333.16;5003331;28;20026;-85
2021/01/09 03:59:48;;;;;;;31.33;16.02;;;;;;;4.48;67.85;101330.13;5003424;28;20416;-85
2021/01/09 04:02:14;;;;;;;28.75;15.43;;;;;;;4.53;67.79;101333.47;4994297;28;20031;-85
2021/01/09 04:04:39;;;;;;;29.73;15.68;;;;;;;4.42;67.71;101332.91;5012681;28;20050;-85
2021/01/09 04:07:04;;;;;;;29.95;13.90;;;;;;;4.45;67.63;101333.69;5013599;28;20040;-85
2021/01/09 04:09:30;;;;;;;32.28;14.52;;;;;;;4.35;68.21;101337.44;5004349;28;20036;-85
2021/01/09 04:11:55;;;;;;;30.83;16.42;;;;;;;4.51;67.60;101335.25;5010775;28;20092;-85
2021/01/09 04:14:20;;;;;;;29.17;15.73;;;;;;;4.42;67.59;101335.50;5010541;28;20400;-85
2021/01/09 04:16:46;;;;;;;38.15;16.10;;;;;;;4.06;69.27;101335.59;5014966;28;20030;-85
2021/01/09 04:19:11;;;;;;;30.98;15.65;;;;;;;4.13;69.17;101342.38;5012546;28;20038;-85
2021/01/09 04:21:51;;;;;;;32.85;16.17;;;;;;;4.16;68.82;101342.25;5005030;28;20033;-85
2021/01/09 04:24:20;;;;;;;40.17;17.00;;;;;;;3.98;70.24;101347.03;5013652;28;20096;-86
2021/01/09 04:27:02;;;;;;;34.47;15.93;;;;;;;4.04;68.98;101359.03;5005296;28;20025;-85
2021/01/09 04:29:27;;;;;;;34.00;16.95;;;;;;;4.14;69.32;101357.88;4996284;28;20351;-85
2021/01/09 04:31:53;;;;;;;38.25;16.90;;;;;;;3.98;70.00;101362.63;4992832;28;20650;-86
2021/01/09 04:34:20;;;;;;;32.72;15.13;;;;;;;4.03;70.18;101369.44;4992297;28;20031;-85
2021/01/09 04:36:45;;;;;;;31.63;16.13;;;;;;;4.09;69.27;101370.16;5007001;28;20029;-85
2021/01/09 04:39:11;;;;;;;32.20;14.70;;;;;;;4.27;69.76;101368.84;4994383;28;20031;-86
2021/01/09 04:41:37;;;;;;;31.73;15.65;;;;;;;4.16;69.24;101366.50;4993431;28;20457;-85
2021/01/09 04:44:04;;;;;;;38.63;15.88;;;;;;;4.16;69.10;101373.47;5007845;28;20030;-85
2021/01/09 04:46:33;;;;;;;35.85;16.58;;;;;;;4.16;69.83;101370.84;4994217;28;20492;-85
2021/01/09 04:48:58;;;;;;;35.60;14.52;;;;;;;4.14;69.29;101370.03;5006140;28;20033;-85
2021/01/09 04:51:24;;;;;;;35.17;16.23;;;;;;;3.88;70.52;101365.50;5013538;28;20022;-86
2021/01/09 04:53:51;;;;;;;29.75;14.45;;;;;;;4.07;68.60;101366.75;5005569;28;20054;-85
2021/01/09 04:56:16;;;;;;;31.58;14.18;;;;;;;4.14;69.62;101380.44;4991773;28;20040;-85
2021/01/09 04:58:42;;;;;;;27.98;13.05;;;;;;;4.26;68.57;101374.91;4999926;28;20026;-85
2021/01/09 05:01:07;;;;;;;30.77;13.98;;;;;;;4.10;69.71;101371.84;5007973;28;20117;-86
2021/01/09 05:03:33;;;;;;;29.17;12.75;;;;;;;4.07;69.90;101379.75;4992546;28;20031;-85
2021/01/09 05:05:58;;;;;;;29.08;14.27;;;;;;;4.03;69.46;101374.66;4992961;28;20022;-85
2021/01/09 05:08:24;;;;;;;29.88;12.93;;;;;;;4.15;68.22;101382.16;5001215;28;20034;-85
2021/01/09 05:10:49;;;;;;;29.90;13.23;;;;;;;4.13;69.19;101386.53;5012353;28;20030;-85
2021/01/09 05:13:16;;;;;;;26.60;12.57;;;;;;;4.11;68.55;101383.97;5011543;28;20030;-84
2021/01/09 05:15:42;;;;;;;34.17;13.30;;;;;;;4.08;68.99;101393.59;5011497;28;20049;-85
2021/01/09 05:18:07;;;;;;;34.22;13.73;;;;;;;4.03;68.05;101395.44;5011042;28;20057;-85
2021/01/09 05:20:34;;;;;;;25.00;12.55;;;;;;;4.03;69.25;101405.84;5012514;28;20546;-85
2021/01/09 05:23:01;;;;;;;31.50;12.73;;;;;;;3.80;69.93;101412.47;5010416;28;20037;-85
2021/01/09 05:25:27;;;;;;;24.27;11.18;;;;;;;3.66;70.64;101404.16;5012675;28;20053;-85
2021/01/09 05:27:58;;;;;;;24.42;10.88;;;;;;;3.92;69.17;101404.38;4996526;28;20054;-85
2021/01/09 05:30:24;;;;;;;25.73;11.82;;;;;;;3.93;69.28;101405.22;5012627;28;20060;-85
2021/01/09 05:32:51;;;;;;;24.40;11.13;;;;;;;3.94;69.58;101412.13;5011181;28;20022;-85
2021/01/09 05:35:17;;;;;;;27.42;12.05;;;;;;;3.96;69.20;101406.00;4996914;28;20038;-86
2021/01/09 05:37:48;;;;;;;28.63;11.95;;;;;;;3.87;69.34;101411.44;4994557;28;20030;-85
2021/01/09 05:40:14;;;;;;;29.67;12.27;;;;;;;3.78;70.18;101411.63;5012044;28;20029;-85
2021/01/09 05:42:39;;;;;;;36.88;12.77;;;;;;;3.81;68.69;101414.19;5011172;28;20079;-85
2021/01/09 05:45:09;;;;;;;27.42;11.52;;;;;;;3.95;69.66;101412.09;5010822;28;20125;-85
2021/01/09 05:47:37;;;;;;;28.67;11.90;;;;;;;3.98;69.08;101411.16;5010983;28;20022;-85
2021/01/09 05:50:07;;;;;;;34.33;12.93;;;;;;;3.86;70.65;101422.69;5009683;28;20480;-85
2021/01/09 05:52:38;;;;;;;29.58;11.40;;;;;;;3.76;70.79;101423.81;5011975;28;20408;-85
2021/01/09 05:55:04;;;;;;;30.63;12.93;;;;;;;3.73;70.98;101419.56;5006439;28;20034;-85
2021/01/09 05:57:34;;;;;;;29.27;12.45;;;;;;;3.76;71.18;101423.81;5003855;28;20393;-85
2021/01/09 06:00:06;;;;;;;27.90;12.20;;;;;;;3.98;70.52;101424.16;5005424;28;20129;-85
2021/01/09 06:03:06;;;;;;;28.02;11.40;;;;;;;4.01;69.59;101431.88;5009425;28;20193;-85
2021/01/09 06:05:48;;;;;;;22.50;10.52;;;;;;;4.09;69.88;101427.34;4996482;28;20061;-85
2021/01/09 06:08:18;;;;;;;24.10;10.25;;;;;;;3.93;68.74;101426.00;5010636;28;20034;-85
2021/01/09 06:10:46;;;;;;;22.70;10.75;;;;;;;3.56;70.99;101435.50;5003703;28;20559;-85
2021/01/09 06:13:13;;;;;;;21.63;9.10;;;;;;;3.95;69.87;101437.22;5008964;28;20486;-85
2021/01/09 06:15:41;;;;;;;20.60;8.70;;;;;;;3.84;69.32;101441.81;5012429;28;20080;-86
2021/01/09 06:18:08;;;;;;;21.30;9.55;;;;;;;3.73;70.02;101436.84;5014418;28;20022;-85
2021/01/09 06:20:35;;;;;;;25.77;10.43;;;;;;;3.81;70.36;101445.34;5009720;28;20492;-85
2021/01/09 06:23:01;;;;;;;29.10;10.32;;;;;;;3.79;70.37;101441.91;5015551;28;20066;-85
2021/01/09 06:25:28;;;;;;;24.33;9.57;;;;;;;3.78;70.76;101442.81;5014084;28;20022;-85
2021/01/09 06:28:02;;;;;;;21.50;8.52;;;;;;;3.76;69.85;101444.59;5011520;28;20088;-85
2021/01/09 06:30:32;;;;;;;24.73;9.93;;;;;;;3.96;68.81;101436.31;5013767;28;20022;-86
2021/01/09 06:33:00;;;;;;;19.92;9.05;;;;;;;4.00;70.10;101447.50;5003843;28;20033;-85
2021/01/09 06:35:26;;;;;;;25.55;10.25;;;;;;;3.97;69.74;101451.03;5015183;28;20030;-86
2021/01/09 06:37:53;;;;;;;23.00;10.18;;;;;;;3.81;70.97;101447.06;5009994;28;20113;-86
2021/01/09 06:40:19;;;;;;;28.13;11.40;;;;;;;3.87;70.50;101452.13;4996328;28;20057;-86
2021/01/09 06:42:46;;;;;;;30.58;11.48;;;;;;;3.55;72.28;101454.59;4996102;28;20076;-86
2021/01/09 06:45:12;;;;;;;28.58;11.32;;;;;;;3.72;71.45;101451.59;5000139;28;20026;-86
2021/01/09 06:47:38;;;;;;;26.23;10.85;;;;;;;3.85;71.11;101457.38;5013969;28;20022;-86
2021/01/09 06:50:18;;;;;;;28.83;11.65;;;;;;;4.01;70.33;101459.59;5013915;28;20410;-85
2021/01/09 06:52:53;;;;;;;28.00;10.57;;;;;;;4.15;69.68;101457.53;5005423;28;20019;-86
2021/01/09 06:55:36;;;;;;;24.00;9.80;;;;;;;4.01;70.82;101462.19;4995949;28;20057;-86
2021/01/09 06:58:09;;;;;;;25.55;10.10;;;;;;;4.03;70.00;101458.69;4998472;28;20026;-85
2021/01/09 07:00:35;;;;;;;25.58;10.00;;;;;;;3.88;70.54;101454.69;5003299;28;20556;-85
2021/01/09 07:03:17;;;;;;;23.30;9.82;;;;;;;3.82;70.35;101454.00;5015445;28;20072;-85
2021/01/09 07:05:45;;;;;;;19.17;8.55;;;;;;;4.20;69.10;101460.03;4998775;28;20050;-85
2021/01/09 07:08:22;;;;;;;22.38;9.82;;;;;;;4.11;69.45;101461.09;4995693;28;20030;-85
2021/01/09 07:10:52;;;;;;;23.23;8.95;;;;;;;4.21;69.46;101462.59;5019853;28;20034;-85
2021/01/09 07:13:17;;;;;;;25.88;9.52;;;;;;;4.07;69.22;101467.25;5006981;28;20026;-85
2021/01/09 07:15:43;;;;;;;22.13;9.32;;;;;;;4.03;70.25;101479.47;5014652;28;20032;-85
2021/01/09 07:18:09;;;;;;;23.80;9.52;;;;;;;3.84;70.65;101476.44;5010703;28;20032;-85
2021/01/09 07:20:41;;;;;;;32.00;9.95;;;;;;;3.81;71.56;101476.53;5014677;28;20034;-84
2021/01/09 07:23:09;;;;;;;23.67;9.60;;;;;;;3.88;70.71;101483.28;5014525;28;20556;-85
2021/01/09 07:25:43;;;;;;;30.75;10.70;;;;;;;3.89;71.11;101482.41;5014787;28;20057;-85
2021/01/09 07:28:16;;;;;;;21.90;8.38;;;;;;;4.03;70.80;101482.09;5014262;28;20021;-85
2021/01/09 07:30:42;;;;;;;21.70;9.30;;;;;;;4.20;70.83;101496.41;5010653;28;20022;-85
2021/01/09 07:33:11;;;;;;;22.90;8.93;;;;;;;4.16;70.25;101495.63;5010365;28;20035;-85
2021/01/09 07:35:39;;;;;;;21.45;8.15;;;;;;;4.21;69.99;101496.38;5013942;28;20030;-85
2021/01/09 07:38:06;;;;;;;19.00;7.55;;;;;;;4.25;69.29;101495.41;5013571;28;20030;-84
2021/01/09 07:40:33;;;;;;;16.73;7.30;;;;;;;4.25;68.11;101489.38;5013456;28;20049;-85
2021/01/09 07:42:59;;;;;;;19.23;6.88;;;;;;;4.30;68.78;101508.28;5012539;28;20018;-85
2021/01/09 07:45:31;;;;;;;17.83;7.78;;;;;;;4.27;69.68;101508.38;5012818;28;20026;-85
2021/01/09 07:47:57;;;;;;;17.67;8.85;;;;;;;4.23;69.60;101510.19;5008288;28;20493;-85
2021/01/09 07:50:23;;;;;;;20.70;8.35;;;;;;;4.21;69.45;101508.53;4994854;28;20022;-84
2021/01/09 07:53:03;;;;;;;20.65;8.00;;;;;;;4.32;70.10;101515.16;5007142;28;20026;-85
2021/01/09 07:55:44;;;;;;;20.50;9.02;;;;;;;4.26;69.60;101517.91;5013448;28;20029;-85
2021/01/09 07:58:10;;;;;;;20.45;8.32;;;;;;;4.39;69.51;101523.69;5012887;28;20037;-85
2021/01/09 08:00:39;;;;;;;18.13;7.47;;;;;;;4.39;69.14;101521.09;5012175;28;20072;-85
2021/01/09 08:03:06;;;;;;;17.63;9.27;;;;;;;4.30;68.09;101516.94;5012974;28;20026;-88
2021/01/09 08:05:31;;;;;;;16.77;7.65;;;;;;;4.27;70.03;101519.63;5013518;28;20172;-87
2021/01/09 08:07:57;;;;;;;19.33;8.57;;;;;;;4.29;68.92;101515.25;5013366;28;20487;-87
2021/01/09 08:10:28;;;;;;;22.77;9.75;;;;;;;4.34;69.72;101526.41;4999851;28;20042;-87
2021/01/09 08:13:07;;;;;;;19.13;8.40;;;;;;;4.48;69.16;101533.88;5012409;28;20014;-88
2021/01/09 08:15:37;;;;;;;21.58;8.40;;;;;;;4.44;69.44;101539.16;5013051;28;20033;-88
2021/01/09 08:18:06;;;;;;;21.85;8.95;;;;;;;4.47;69.99;101533.91;5016190;28;20026;-89
2021/01/09 08:20:32;;;;;;;26.23;9.43;;;;;;;4.22;70.73;101529.28;5013197;28;20088;-88
2021/01/09 08:23:01;;;;;;;23.65;10.45;;;;;;;4.29;70.38;101538.66;4999037;28;20046;-88
2021/01/09 08:25:32;;;;;;;26.20;9.52;;;;;;;4.46;69.95;101535.63;5005796;28;20403;-89
2021/01/09 08:28:00;;;;;;;23.50;9.57;;;;;;;4.27;69.69;101534.38;5013304;28;20465;-88
2021/01/09 08:30:36;;;;;;;26.83;10.38;;;;;;;4.41;70.18;101541.84;5012836;28;20025;-89
2021/01/09 08:33:16;;;;;;;25.70;9.70;;;;;;;4.52;69.80;101550.22;5011648;28;20120;-89
2021/01/09 08:35:51;;;;;;;22.15;9.25;;;;;;;4.52;69.20;101555.44;5012597;28;20037;-89
2021/01/09 08:38:27;;;;;;;25.55;9.30;;;;;;;4.56;69.68;101562.25;5009237;28;20022;-89
2021/01/09 08:40:59;;;;;;;25.23;9.13;;;;;;;4.55;69.67;101556.22;5011577;28;20345;-88
2021/01/09 08:43:25;;;;;;;23.17;8.55;;;;;;;4.63;68.94;101557.78;5012218;28;20484;-89
2021/01/09 08:45:52;;;;;;;22.90;10.15;;;;;;;4.51;68.83;101569.34;5011269;28;20116;-88
2021/01/09 08:48:23;;;;;;;26.25;9.68;;;;;;;4.51;69.67;101556.34;5012664;28;20546;-88
2021/01/09 08:50:56;;;;;;;19.20;8.88;;;;;;;4.76;68.53;101560.03;5012547;28;20068;-88
2021/01/09 08:53:22;;;;;;;23.15;9.15;;;;;;;4.75;68.49;101558.31;5012307;28;20037;-88
2021/01/09 08:55:51;;;;;;;24.80;9.95;;;;;;;4.43;69.54;101553.91;5012147;28;20117;-88
2021/01/09 08:58:16;;;;;;;22.35;9.02;;;;;;;4.67;68.60;101565.47;5010521;28;20109;-88
2021/01/09 09:00:42;;;;;;;23.20;8.55;;;;;;;4.87;67.93;101562.34;5012257;28;20109;-88
2021/01/09 09:03:10;;;;;;;18.00;8.43;;;;;;;4.82;67.26;101566.84;5012289;28;20487;-87
2021/01/09 09:05:39;;;;;;;20.13;8.23;;;;;;;4.74;68.21;101569.63;5012272;28;20030;-88
2021/01/09 09:08:09;;;;;;;21.15;8.63;;;;;;;4.74;68.30;101569.63;5012391;28;20033;-88
2021/01/09 09:10:35;;;;;;;25.58;8.60;;;;;;;4.65;68.68;101572.44;5012294;28;20036;-88
2021/01/09 09:13:21;;;;;;;18.75;7.65;;;;;;;4.84;68.59;101582.41;5011987;28;20446;-87
2021/01/09 09:15:47;;;;;;;19.85;8.70;;;;;;;4.76;69.13;101575.66;5007520;28;20034;-87
2021/01/09 09:18:13;;;;;;;17.48;7.78;;;;;;;4.91;68.87;101592.63;5011673;28;20042;-90
2021/01/09 09:20:43;;;;;;;23.35;8.75;;;;;;;4.73;70.11;101593.94;5013005;28;20030;-89
2021/01/09 09:23:15;;;;;;;26.73;8.38;;;;;;;4.82;69.42;101595.47;5012489;28;20440;-88
2021/01/09 09:25:40;;;;;;;20.88;8.85;;;;;;;4.85;68.18;101604.94;5011861;28;20029;-87
2021/01/09 09:28:05;;;;;;;20.35;9.05;;;;;;;4.96;68.35;101608.97;5016783;28;20030;-88
2021/01/09 09:30:31;;;;;;;21.92;9.25;;;;;;;4.97;68.28;101604.63;5012214;28;20484;-87
2021/01/09 09:33:10;;;;;;;18.92;8.80;;;;;;;5.12;67.98;101609.44;5011941;28;20068;-86
2021/01/09 09:35:36;;;;;;;19.45;8.20;;;;;;;5.09;67.57;101609.50;5011765;28;20048;-88
2021/01/09 09:38:02;;;;;;;20.30;8.35;;;;;;;4.98;67.27;101606.34;5011114;28;20468;-88
2021/01/09 09:40:35;;;;;;;21.17;8.57;;;;;;;5.28;67.09;101603.84;5010107;28;20040;-88
2021/01/09 09:43:30;;;;;;;20.77;8.73;;;;;;;5.25;66.71;101609.09;5011443;28;20030;-88
2021/01/09 09:46:01;;;;;;;28.40;9.68;;;;;;;5.08;67.69;101609.56;5002036;28;20133;-88
2021/01/09 09:48:39;;;;;;;23.10;9.85;;;;;;;5.21;66.83;101607.50;5010964;28;20030;-89
2021/01/09 09:51:06;;;;;;;19.63;7.80;;;;;;;5.29;67.80;101616.81;5012401;28;20034;-88
2021/01/09 09:53:35;;;;;;;25.30;9.40;;;;;;;5.14;67.19;101612.84;5011889;28;20037;-88
2021/01/09 09:56:14;;;;;;;19.45;9.00;;;;;;;5.26;67.69;101618.66;5011582;28;20038;-88
2021/01/09 09:58:40;;;;;;;19.42;9.13;;;;;;;5.13;68.14;101618.09;5019749;28;20045;-88
2021/01/09 10:01:19;;;;;;;21.15;8.23;;;;;;;5.31;68.00;101604.63;5011623;28;20033;-88
2021/01/09 10:03:44;;;;;;;20.33;8.55;;;;;;;5.35;68.18;101621.00;5011435;28;20084;-88
2021/01/09 10:06:10;;;;;;;19.13;8.63;;;;;;;5.41;67.10;101613.03;5020678;28;20021;-89
2021/01/09 10:08:35;;;;;;;21.33;8.55;;;;;;;5.41;67.50;101615.63;5012128;28;20053;-87
2021/01/09 10:11:02;;;;;;;18.63;8.05;;;;;;;5.46;66.86;101613.75;5030585;28;20423;-86
2021/01/09 10:13:29;;;;;;;22.30;9.30;;;;;;;5.38;67.95;101614.88;5019518;28;20079;-87
2021/01/09 10:15:56;;;;;;;18.17;7.85;;;;;;;5.46;67.10;101620.72;5010905;28;20374;-88
2021/01/09 10:18:22;;;;;;;20.20;9.10;;;;;;;5.57;67.72;101616.06;5010605;28;20088;-88
2021/01/09 10:20:47;;;;;;;17.75;8.00;;;;;;;5.64;66.15;101614.13;5010245;28;20077;-88
2021/01/09 10:23:12;;;;;;;22.60;9.15;;;;;;;5.47;66.41;101614.59;5011003;28;20410;-87
2021/01/09 10:25:38;;;;;;;20.45;8.85;;;;;;;5.55;66.02;101605.69;5018668;28;20094;-87
2021/01/09 10:28:03;;;;;;;14.05;6.90;;;;;;;5.69;66.26;101615.72;5033144;28;20014;-87
2021/01/09 10:30:28;;;;;;;18.25;7.97;;;;;;;5.28;67.08;101624.66;5033008;28;20271;-87
2021/01/09 10:32:54;;;;;;;18.77;9.07;;;;;;;5.57;65.96;101622.13;5017969;28;20388;-88
2021/01/09 10:35:19;;;;;;;19.40;8.57;;;;;;;5.51;67.03;101617.09;5012295;28;20109;-88
2021/01/09 10:37:46;;;;;;;21.02;8.63;;;;;;;5.69;66.49;101622.69;5011807;28;20026;-88
2021/01/09 10:40:12;;;;;;;19.83;8.93;;;;;;;5.63;66.76;101622.84;5010709;28;20038;-87
2021/01/09 10:42:37;;;;;;;21.13;8.70;;;;;;;5.80;66.74;101612.78;5011169;28;20034;-87
2021/01/09 10:45:03;;;;;;;17.52;8.45;;;;;;;5.83;65.41;101617.94;5010191;28;20033;-87
2021/01/09 10:47:28;;;;;;;22.13;8.25;;;;;;;6.07;65.60;101615.53;5012665;28;20037;-87
2021/01/09 10:49:54;;;;;;;17.23;8.65;;;;;;;5.78;65.08;101605.94;5014678;28;20026;-87
2021/01/09 10:52:19;;;;;;;14.93;6.75;;;;;;;5.95;64.17;101603.72;5016406;28;20026;-87
2021/01/09 10:54:44;;;;;;;12.20;6.97;;;;;;;5.93;63.01;101608.94;5018585;28;20029;-89
2021/01/09 10:57:10;;;;;;;19.85;7.30;;;;;;;5.87;64.30;101597.84;5014556;28;20026;-88
2021/01/09 10:59:35;;;;;;;19.05;7.97;;;;;;;5.72;65.37;101615.63;5014259;28;20036;-88
2021/01/09 11:02:03;;;;;;;15.90;8.48;;;;;;;5.87;65.47;101609.13;5013817;28;20052;-88
2021/01/09 11:04:29;;;;;;;17.77;7.45;;;;;;;5.74;65.40;101612.97;5012844;28;20108;-88
2021/01/09 11:06:58;;;;;;;18.00;7.68;;;;;;;5.82;65.64;101602.34;5013633;28;20439;-88
2021/01/09 11:09:24;;;;;;;17.95;7.82;;;;;;;6.05;64.97;101610.38;5015145;28;20025;-88
2021/01/09 11:11:50;;;;;;;17.60;7.70;;;;;;;5.90;65.64;101598.59;5014721;28;20029;-88
2021/01/09 11:14:15;;;;;;;18.70;9.02;;;;;;;5.76;65.55;101612.03;5015372;28;20041;-88
2021/01/09 11:16:41;;;;;;;18.67;8.35;;;;;;;5.83;66.02;101602.28;5014769;28;20116;-88
2021/01/09 11:19:06;;;;;;;14.32;7.40;;;;;;;5.98;65.61;101605.38;5014866;28;20025;-89
2021/01/09 11:21:31;;;;;;;15.40;7.82;;;;;;;5.87;64.91;101606.53;5014615;28;20404;-88